Yreka, CA (96097)

2:19 PM PDT on April 21, 2015 (GMT -0700)
Siskiyou County | | Change Station
CLOSE
Current Station
Airport
Location: Montague,
Elevation: 2648 ft
Nearby Weather Stations

Elev 2648 ft 41.78 °N, 122.47 °W | Updated 26 minutes ago

Clear
Clear
77 °F
Feels Like 77 °F
N
17
Wind Variable Wind from NNE
Gusts 23 mph

Today
High -- | Low -- °F
--% Chance of Precip.
Yesterday
High -- | Low -- °F
Precip. -- in
6:21 AM 7:57 PM
Waxing Crescent, 12% visible
Pressure 29.80 in
Visibility 10.0 miles
Clouds Clear
Dew Point 41 °F
Humidity 28%
Rainfall 0.00 in
Snow Depth Not available.
UV 10 out of 12
Pollen 9.70 out of 12
Air Quality Not available.
Flu Activity Sporadic
METAR KSIY 212053Z AUTO 02015G20KT 10SM CLR 25/05 A2981 RMK AO2 SLP091 T02500050 58017

More Conditions Fewer Conditions

Pressure 29.80 in
Visibility 10.0 miles
Clouds Clear
Dew Point 41 °F
Humidity 28%
Rainfall 0.00 in
Snow Depth Not available.
UV 10 out of 12
Pollen 9.70 out of 12
Air Quality Not available.
Flu Activity Sporadic
METAR KSIY 212053Z AUTO 02015G20KT 10SM CLR 25/05 A2981 RMK AO2 SLP091 T02500050 58017

More Conditions Fewer Conditions

10-Day Weather Forecast

Almanac

Astronomy

Apr. 21, 2015 Rise Set
Actual Time
Civil Twilight
Nautical Twilight
Astronomical Twilight
Moon
Length of Visible Light
Length of Day
Tomorrow will be .
, % of the Moon is Illuminated

Today's Extremes

State Highs State Lows

Community

WunderPhotos

Upload Photos

1,815,549 photos uploaded!

WunderBlogs® & News

Nearby

Air Quality

  Air Quality AQ Index Pollutant
Not available.

Snow Depth

Station Depth Elevation

Earthquake Activity

City Distance Mag. Time & Date
Minimum magnitude displayed is 2.5.

Coastal Water Temperatures

Place Temperature

Stations

Nearby Weather Stations

Station Location Temp. Windchill Dew Point Humidity Wind Precip. Elev Updated Type